createdAt,value
2022-12-04T00:01:28.100Z,9.57
2022-12-04T00:03:57.478Z,10.77
2022-12-04T00:06:25.448Z,12.93
2022-12-04T00:08:53.733Z,10.77
2022-12-04T00:11:25.359Z,6.60
2022-12-04T00:13:52.990Z,9.32
2022-12-04T00:16:24.232Z,10.70
2022-12-04T00:18:52.242Z,11.70
2022-12-04T00:21:20.896Z,9.15
2022-12-04T00:23:48.691Z,11.75
2022-12-04T00:26:22.512Z,10.48
2022-12-04T00:28:50.851Z,8.63
2022-12-04T00:31:24.314Z,9.35
2022-12-04T00:33:52.636Z,11.90
2022-12-04T00:36:23.564Z,8.35
2022-12-04T00:38:51.537Z,7.63
2022-12-04T00:41:21.918Z,9.15
2022-12-04T00:43:52.552Z,8.73
2022-12-04T00:46:20.973Z,9.02
2022-12-04T00:48:48.474Z,11.60
2022-12-04T00:51:19.818Z,13.68
2022-12-04T00:53:47.570Z,9.88
2022-12-04T00:56:18.791Z,9.60
2022-12-04T00:58:46.991Z,8.27
2022-12-04T01:01:18.592Z,8.82
2022-12-04T01:03:46.618Z,11.25
2022-12-04T01:06:29.159Z,9.00
2022-12-04T01:08:57.987Z,10.55
2022-12-04T01:11:26.752Z,10.60
2022-12-04T01:13:54.528Z,9.88
2022-12-04T01:16:25.427Z,9.98
2022-12-04T01:18:53.087Z,11.77
2022-12-04T01:21:20.579Z,11.10
2022-12-04T01:23:48.170Z,7.75
2022-12-04T01:26:15.997Z,9.77
2022-12-04T01:28:43.403Z,7.60
2022-12-04T01:31:17.131Z,11.25
2022-12-04T01:33:44.957Z,11.27
2022-12-04T01:36:15.204Z,12.05
2022-12-04T01:38:43.317Z,10.05
2022-12-04T01:41:13.381Z,12.65
2022-12-04T01:43:41.582Z,11.93
2022-12-04T01:46:12.322Z,13.07
2022-12-04T01:48:51.799Z,9.45
2022-12-04T01:51:29.693Z,12.05
2022-12-04T01:54:01.753Z,11.98
2022-12-04T01:56:39.661Z,9.07
2022-12-04T01:59:08.263Z,10.23
2022-12-04T02:01:56.211Z,10.20
2022-12-04T02:04:23.993Z,10.45
2022-12-04T02:06:51.377Z,10.88
2022-12-04T02:09:24.734Z,10.68
2022-12-04T02:12:08.157Z,11.07
2022-12-04T02:14:48.923Z,8.85
2022-12-04T02:17:35.494Z,10.15
2022-12-04T02:20:33.798Z,10.60
2022-12-04T02:23:31.260Z,11.07
2022-12-04T02:26:19.636Z,10.85
2022-12-04T02:28:54.861Z,10.32
2022-12-04T02:31:30.905Z,13.13
2022-12-04T02:34:13.313Z,10.52
2022-12-04T02:36:50.951Z,12.32
2022-12-04T02:39:28.025Z,11.50
2022-12-04T02:42:01.722Z,13.75
2022-12-04T02:44:38.998Z,10.48
2022-12-04T02:47:11.019Z,8.57
2022-12-04T02:49:44.589Z,13.48
2022-12-04T02:52:16.184Z,11.68
2022-12-04T02:54:49.125Z,10.95
2022-12-04T02:57:22.882Z,8.48
2022-12-04T02:59:52.331Z,10.40
2022-12-04T03:02:27.441Z,11.10
2022-12-04T03:04:57.618Z,11.43
2022-12-04T03:07:31.234Z,6.63
2022-12-04T03:10:23.538Z,10.68
2022-12-04T03:13:03.349Z,11.25
2022-12-04T03:15:46.996Z,10.48
2022-12-04T03:18:23.706Z,11.68
2022-12-04T03:20:57.415Z,12.85
2022-12-04T03:23:33.752Z,8.50
2022-12-04T03:26:12.307Z,11.63
2022-12-04T03:29:00.377Z,11.00
2022-12-04T03:31:42.552Z,10.88
2022-12-04T03:34:12.925Z,9.60
2022-12-04T03:36:52.663Z,13.70
2022-12-04T03:39:38.675Z,12.48
2022-12-04T03:42:33.105Z,10.98
2022-12-04T03:45:23.569Z,12.25
2022-12-04T03:47:53.993Z,7.70
2022-12-04T03:50:37.726Z,13.15
2022-12-04T03:53:08.377Z,12.93
2022-12-04T03:55:42.997Z,11.00
2022-12-04T03:58:19.983Z,9.73
2022-12-04T04:00:51.107Z,11.68
2022-12-04T04:03:26.404Z,11.38
2022-12-04T04:05:59.857Z,10.95
2022-12-04T04:08:34.176Z,11.93
2022-12-04T04:11:08.355Z,12.18
2022-12-04T04:14:02.942Z,13.35
2022-12-04T04:16:52.935Z,8.70
2022-12-04T04:19:40.308Z,6.80
2022-12-04T04:22:28.535Z,8.70
2022-12-04T04:25:03.410Z,9.23
2022-12-04T04:29:58.452Z,7.35
2022-12-04T04:32:49.116Z,11.50
2022-12-04T04:35:32.032Z,12.27
2022-12-04T04:38:21.228Z,6.68
2022-12-04T04:40:58.543Z,9.75
2022-12-04T04:43:59.619Z,11.77
2022-12-04T04:46:34.859Z,8.88
2022-12-04T04:49:05.357Z,8.65
2022-12-04T04:51:35.009Z,9.80
2022-12-04T04:54:07.028Z,9.18
2022-12-04T04:56:43.585Z,9.82
2022-12-04T04:59:11.432Z,10.32
2022-12-04T05:01:40.180Z,11.10
2022-12-04T05:04:08.459Z,12.38
2022-12-04T05:06:35.865Z,10.00
2022-12-04T05:09:04.043Z,11.77
2022-12-04T05:11:31.761Z,10.15
2022-12-04T05:13:59.142Z,7.03
2022-12-04T05:16:26.506Z,8.90
2022-12-04T05:19:12.351Z,13.23
2022-12-04T05:21:41.727Z,10.27
2022-12-04T05:24:09.711Z,11.25
2022-12-04T05:26:37.192Z,13.65
2022-12-04T05:29:04.559Z,11.30
2022-12-04T05:31:32.081Z,11.32
2022-12-04T05:33:59.499Z,12.38
2022-12-04T05:36:26.912Z,14.27
2022-12-04T05:38:54.236Z,11.00
2022-12-04T05:41:21.529Z,13.27
2022-12-04T05:43:48.930Z,12.63
2022-12-04T05:46:16.821Z,13.20
2022-12-04T05:48:44.284Z,11.77
2022-12-04T05:51:12.226Z,8.40
2022-12-04T05:53:42.066Z,8.02
2022-12-04T05:56:10.600Z,12.80
2022-12-04T05:58:38.738Z,13.27
2022-12-04T06:01:15.687Z,10.95
2022-12-04T06:03:43.647Z,10.18
2022-12-04T06:06:17.624Z,11.93
2022-12-04T06:08:50.641Z,11.77
2022-12-04T06:11:30.183Z,6.50
2022-12-04T06:13:59.960Z,9.18
2022-12-04T06:16:34.175Z,11.95
2022-12-04T06:19:04.748Z,11.57
2022-12-04T06:21:35.543Z,10.25
2022-12-04T06:24:03.447Z,11.85
2022-12-04T06:26:30.828Z,6.85
2022-12-04T06:28:59.905Z,9.48
2022-12-04T06:31:29.106Z,13.07
2022-12-04T06:33:58.063Z,11.02
2022-12-04T06:36:26.396Z,13.07
2022-12-04T06:38:56.084Z,12.82
2022-12-04T06:41:25.187Z,11.57
2022-12-04T06:43:52.618Z,11.40
2022-12-04T06:46:26.550Z,10.98
2022-12-04T06:48:56.472Z,10.07
2022-12-04T06:51:30.031Z,13.07
2022-12-04T06:53:57.814Z,11.85
2022-12-04T06:56:28.454Z,10.90
2022-12-04T06:58:58.595Z,11.50
2022-12-04T07:01:29.098Z,10.10
2022-12-04T07:03:57.662Z,11.50
2022-12-04T07:06:27.903Z,10.27
2022-12-04T07:09:02.070Z,11.88
2022-12-04T07:11:30.073Z,12.27
2022-12-04T07:13:57.570Z,13.23
2022-12-04T07:16:27.082Z,9.70
2022-12-04T07:18:56.574Z,8.52
2022-12-04T07:21:28.850Z,10.10
2022-12-04T07:23:59.004Z,7.78
2022-12-04T07:26:28.464Z,6.82
2022-12-04T07:28:57.000Z,10.95
2022-12-04T07:31:26.165Z,9.93
2022-12-04T07:33:54.534Z,9.82
2022-12-04T07:36:23.288Z,11.45
2022-12-04T07:38:51.108Z,10.75
2022-12-04T07:41:19.493Z,10.27
2022-12-04T07:43:47.060Z,13.13
2022-12-04T07:46:17.023Z,12.35
2022-12-04T07:48:44.458Z,8.73
2022-12-04T07:51:15.888Z,10.30
2022-12-04T07:53:44.290Z,10.95
2022-12-04T07:56:12.603Z,11.52
2022-12-04T07:58:41.020Z,10.07
2022-12-04T08:01:19.798Z,9.90
2022-12-04T08:03:49.346Z,11.93
2022-12-04T08:06:21.923Z,12.10
2022-12-04T08:08:50.161Z,12.57
2022-12-04T08:11:20.375Z,11.95
2022-12-04T08:13:48.185Z,10.27
2022-12-04T08:16:15.840Z,12.07
2022-12-04T08:18:46.708Z,7.53
2022-12-04T08:21:19.223Z,11.77
2022-12-04T08:23:47.761Z,10.20
2022-12-04T08:26:15.296Z,10.23
2022-12-04T08:28:42.956Z,11.68
2022-12-04T08:31:15.346Z,8.93
2022-12-04T08:33:46.561Z,8.85
2022-12-04T08:36:16.930Z,8.77
2022-12-04T08:38:44.386Z,9.43
2022-12-04T08:41:13.949Z,11.57
2022-12-04T08:43:41.884Z,9.75
2022-12-04T08:46:12.522Z,6.68
2022-12-04T08:48:40.324Z,10.50
2022-12-04T08:51:12.216Z,13.00
2022-12-04T08:53:39.560Z,11.07
2022-12-04T08:56:07.082Z,8.65
2022-12-04T08:58:34.494Z,12.75
2022-12-04T09:01:11.082Z,10.45
2022-12-04T09:03:39.083Z,11.65
2022-12-04T09:06:07.770Z,11.75
2022-12-04T09:08:36.166Z,13.15
2022-12-04T09:11:07.323Z,11.45
2022-12-04T09:13:35.365Z,5.15
2022-12-04T09:16:09.087Z,12.25
2022-12-04T09:18:40.659Z,10.10
2022-12-04T09:21:11.880Z,10.27
2022-12-04T09:23:40.176Z,9.77
2022-12-04T09:26:19.032Z,11.40
2022-12-04T09:28:47.643Z,9.90
2022-12-04T09:31:15.685Z,12.38
2022-12-04T09:33:43.312Z,11.35
2022-12-04T09:36:16.125Z,8.50
2022-12-04T09:38:48.705Z,7.28
2022-12-04T09:41:53.732Z,6.97
2022-12-04T09:44:29.633Z,11.55
2022-12-04T09:47:02.109Z,7.75
2022-12-04T09:49:34.579Z,7.05
2022-12-04T09:52:08.204Z,7.13
2022-12-04T09:54:41.337Z,8.13
2022-12-04T09:57:24.207Z,7.60
2022-12-04T09:59:53.354Z,8.13
2022-12-04T10:02:30.115Z,11.43
2022-12-04T10:04:57.657Z,9.40
2022-12-04T10:07:48.985Z,9.60
2022-12-04T10:10:23.442Z,7.32
2022-12-04T10:13:09.275Z,10.10
2022-12-04T10:15:40.030Z,8.57
2022-12-04T10:18:33.394Z,9.13
2022-12-04T10:21:32.959Z,9.75
2022-12-04T10:24:15.311Z,10.07
2022-12-04T10:26:48.299Z,8.07
2022-12-04T10:29:21.525Z,8.50
2022-12-04T10:31:51.935Z,9.93
2022-12-04T10:34:25.538Z,7.03
2022-12-04T10:36:57.510Z,8.50
2022-12-04T10:39:30.933Z,8.52
2022-12-04T10:42:18.892Z,8.55
2022-12-04T10:44:46.315Z,8.15
2022-12-04T10:47:14.065Z,9.77
2022-12-04T10:49:42.120Z,8.15
2022-12-04T10:52:13.073Z,5.97
2022-12-04T10:54:48.426Z,7.03
2022-12-04T10:57:16.432Z,9.52
2022-12-04T10:59:55.704Z,8.45
2022-12-04T11:02:27.002Z,9.70
2022-12-04T11:05:00.514Z,5.95
2022-12-04T11:07:32.425Z,8.75
2022-12-04T11:10:03.311Z,6.95
2022-12-04T11:12:33.814Z,7.22
2022-12-04T11:15:22.738Z,7.88
2022-12-04T11:17:50.544Z,8.38
2022-12-04T11:20:21.567Z,8.40
2022-12-04T11:22:59.417Z,7.80
2022-12-04T11:25:44.760Z,7.38
2022-12-04T11:28:39.772Z,8.38
2022-12-04T11:31:07.900Z,6.60
2022-12-04T11:33:46.348Z,8.63
2022-12-04T11:36:28.181Z,5.78
2022-12-04T11:39:07.452Z,4.78
2022-12-04T11:41:34.962Z,7.15
2022-12-04T11:44:02.425Z,6.43
2022-12-04T11:46:34.045Z,8.35
2022-12-04T11:49:04.416Z,6.32
2022-12-04T11:51:42.804Z,6.13
2022-12-04T11:54:31.705Z,8.23
2022-12-04T11:57:07.506Z,5.68
2022-12-04T12:00:13.558Z,6.18
2022-12-04T12:02:43.865Z,6.93
2022-12-04T12:05:14.325Z,6.28
2022-12-04T12:08:04.124Z,5.60
2022-12-04T12:10:44.781Z,5.70
2022-12-04T12:13:25.327Z,4.57
2022-12-04T12:16:17.899Z,5.75
2022-12-04T12:18:59.137Z,5.47
2022-12-04T12:21:49.739Z,6.95
2022-12-04T12:24:20.282Z,5.57
2022-12-04T12:27:06.555Z,6.63
2022-12-04T12:30:02.367Z,8.70
2022-12-04T12:32:29.711Z,6.80
2022-12-04T12:34:58.715Z,6.50
2022-12-04T12:37:30.301Z,5.78
2022-12-04T12:40:09.895Z,7.32
2022-12-04T12:43:16.451Z,3.90
2022-12-04T12:45:55.378Z,5.70
2022-12-04T12:48:43.944Z,6.00
2022-12-04T12:51:30.132Z,6.10
2022-12-04T12:54:23.894Z,6.55
2022-12-04T12:56:56.910Z,4.60
2022-12-04T12:59:27.355Z,5.45
2022-12-04T13:02:03.344Z,5.28
2022-12-04T13:04:48.206Z,6.22
2022-12-04T13:07:18.868Z,7.07
2022-12-04T13:09:53.221Z,5.53
2022-12-04T13:12:21.895Z,6.47
2022-12-04T13:14:49.462Z,2.75
2022-12-04T13:17:35.627Z,5.80
2022-12-04T13:20:10.424Z,5.07
2022-12-04T13:23:02.927Z,6.20
2022-12-04T13:25:52.421Z,6.55
2022-12-04T13:28:29.553Z,3.63
2022-12-04T13:31:33.509Z,4.88
2022-12-04T13:34:37.372Z,6.38
2022-12-04T13:37:35.588Z,6.03
2022-12-04T13:40:15.281Z,5.32
2022-12-04T13:42:42.815Z,4.70
2022-12-04T13:45:27.481Z,5.28
2022-12-04T13:48:00.291Z,5.97
2022-12-04T13:50:33.993Z,3.15
2022-12-04T13:53:01.705Z,5.95
2022-12-04T13:55:31.796Z,5.25
2022-12-04T13:58:02.809Z,6.60
2022-12-04T14:00:33.842Z,4.18
2022-12-04T14:03:23.143Z,6.32
2022-12-04T14:05:51.264Z,5.50
2022-12-04T14:08:28.429Z,5.50
2022-12-04T14:11:05.311Z,4.38
2022-12-04T14:13:49.301Z,6.30
2022-12-04T14:16:22.847Z,5.45
2022-12-04T14:18:57.012Z,6.25
2022-12-04T14:21:25.048Z,6.30
2022-12-04T14:23:53.197Z,6.13
2022-12-04T14:27:10.112Z,4.60
2022-12-04T14:29:29.998Z,6.07
2022-12-04T14:32:08.455Z,6.05
2022-12-04T14:34:37.867Z,5.07
2022-12-04T14:37:05.827Z,6.63
2022-12-04T14:39:36.925Z,5.32
2022-12-04T14:42:06.389Z,5.30
2022-12-04T14:44:36.004Z,6.55
2022-12-04T14:47:32.250Z,6.57
2022-12-04T14:50:15.100Z,5.43
2022-12-04T14:53:00.694Z,6.07
2022-12-04T14:55:41.124Z,6.20
2022-12-04T14:58:34.666Z,6.10
2022-12-04T15:01:28.776Z,6.55
2022-12-04T15:04:04.607Z,6.40
2022-12-04T15:06:33.582Z,4.40
2022-12-04T15:09:23.045Z,7.20
2022-12-04T15:12:13.625Z,5.85
2022-12-04T15:14:46.504Z,7.65
2022-12-04T15:17:18.599Z,4.10
2022-12-04T15:19:46.496Z,6.60
2022-12-04T15:22:23.533Z,7.40
2022-12-04T15:24:52.214Z,4.78
2022-12-04T15:27:31.767Z,6.97
2022-12-04T15:30:02.235Z,8.40
2022-12-04T15:32:32.334Z,5.78
2022-12-04T15:35:09.193Z,7.30
2022-12-04T15:37:37.023Z,7.50
2022-12-04T15:40:09.053Z,5.43
2022-12-04T15:42:36.561Z,5.70
2022-12-04T15:45:09.936Z,8.20
2022-12-04T15:47:38.467Z,8.77
2022-12-04T15:50:18.296Z,9.18
2022-12-04T15:52:55.026Z,7.00
2022-12-04T15:55:24.407Z,8.52
2022-12-04T15:57:55.038Z,9.20
2022-12-04T16:00:36.310Z,10.10
2022-12-04T16:03:19.705Z,10.10
2022-12-04T16:05:50.562Z,9.38
2022-12-04T16:08:36.689Z,7.03
2022-12-04T16:11:24.292Z,6.63
2022-12-04T16:14:07.940Z,9.48
2022-12-04T16:16:38.587Z,6.25
2022-12-04T16:19:16.092Z,8.48
2022-12-04T16:21:43.915Z,6.75
2022-12-04T16:24:13.364Z,8.10
2022-12-04T16:26:41.334Z,6.78
2022-12-04T16:29:08.895Z,7.00
2022-12-04T16:31:38.622Z,8.40
2022-12-04T16:34:06.124Z,9.43
2022-12-04T16:36:33.503Z,8.77
2022-12-04T16:39:01.660Z,8.68
2022-12-04T16:41:29.180Z,7.85
2022-12-04T16:43:58.978Z,7.45
2022-12-04T16:46:28.905Z,8.13
2022-12-04T16:48:56.625Z,6.95
2022-12-04T16:51:27.763Z,8.15
2022-12-04T16:53:56.374Z,6.25
2022-12-04T16:56:23.929Z,9.32
2022-12-04T16:58:51.263Z,9.77
2022-12-04T17:01:23.686Z,8.45
2022-12-04T17:03:51.772Z,9.02
2022-12-04T17:06:19.698Z,9.55
2022-12-04T17:08:47.426Z,8.15
2022-12-04T17:11:17.564Z,7.03
2022-12-04T17:13:45.719Z,8.70
2022-12-04T17:16:15.175Z,9.10
2022-12-04T17:18:43.959Z,7.45
2022-12-04T17:21:15.202Z,9.20
2022-12-04T17:23:42.915Z,10.05
2022-12-04T17:26:15.139Z,11.23
2022-12-04T17:28:42.908Z,8.32
2022-12-04T17:31:25.425Z,8.93
2022-12-04T17:33:53.371Z,11.40
2022-12-04T17:36:23.551Z,10.05
2022-12-04T17:38:59.591Z,9.93
2022-12-04T17:41:27.128Z,12.32
2022-12-04T17:43:54.504Z,9.57
2022-12-04T17:46:24.767Z,10.15
2022-12-04T17:48:52.593Z,9.23
2022-12-04T17:51:23.084Z,7.75
2022-12-04T17:53:51.629Z,9.57
2022-12-04T17:56:22.101Z,9.98
2022-12-04T17:58:50.376Z,9.32
2022-12-04T18:01:24.036Z,8.40
2022-12-04T18:03:53.341Z,7.85
2022-12-04T18:06:29.582Z,9.98
2022-12-04T18:08:57.814Z,8.73
2022-12-04T18:11:27.846Z,9.60
2022-12-04T18:14:08.572Z,9.10
2022-12-04T18:16:42.085Z,7.45
2022-12-04T18:19:10.060Z,8.48
2022-12-04T18:21:37.593Z,6.05
2022-12-04T18:24:06.491Z,7.78
2022-12-04T18:26:39.722Z,10.10
2022-12-04T18:29:07.806Z,10.70
2022-12-04T18:31:35.638Z,8.27
2022-12-04T18:34:05.588Z,7.50
2022-12-04T18:36:34.051Z,8.77
2022-12-04T18:39:07.879Z,9.45
2022-12-04T18:41:35.763Z,8.25
2022-12-04T18:44:03.914Z,8.93
2022-12-04T18:46:31.563Z,8.50
2022-12-04T18:49:00.043Z,9.80
2022-12-04T18:51:29.411Z,8.45
2022-12-04T18:54:06.140Z,9.45
2022-12-04T18:56:35.283Z,6.93
2022-12-04T18:59:06.010Z,8.40
2022-12-04T19:01:34.100Z,9.38
2022-12-04T19:04:04.768Z,8.15
2022-12-04T19:06:35.034Z,9.05
2022-12-04T19:09:04.890Z,9.88
2022-12-04T19:11:32.551Z,9.25
2022-12-04T19:14:01.456Z,8.63
2022-12-04T19:16:29.447Z,7.78
2022-12-04T19:18:57.559Z,8.20
2022-12-04T19:21:25.630Z,8.88
2022-12-04T19:23:59.772Z,8.40
2022-12-04T19:28:57.062Z,8.93
2022-12-04T19:31:27.910Z,7.30
2022-12-04T19:33:59.124Z,8.82
2022-12-04T19:36:29.360Z,8.60
2022-12-04T19:38:58.013Z,7.20
2022-12-04T19:41:28.153Z,8.52
2022-12-04T19:43:57.327Z,7.88
2022-12-04T19:46:27.116Z,8.10
2022-12-04T19:48:58.257Z,7.60
2022-12-04T19:51:25.843Z,9.52
2022-12-04T19:53:55.062Z,10.88
2022-12-04T19:56:25.181Z,8.52
2022-12-04T19:58:53.913Z,9.48
2022-12-04T20:01:28.444Z,9.35
2022-12-04T20:03:57.085Z,10.15
2022-12-04T20:06:26.967Z,9.60
2022-12-04T20:08:57.959Z,9.93
2022-12-04T20:11:26.025Z,10.95
2022-12-04T20:13:55.613Z,8.32
2022-12-04T20:16:25.535Z,10.50
2022-12-04T20:18:53.595Z,10.02
2022-12-04T20:21:25.602Z,9.25
2022-12-04T20:23:54.281Z,10.65
2022-12-04T20:26:24.596Z,11.57
2022-12-04T20:28:53.002Z,12.13
2022-12-04T20:31:33.035Z,11.20
2022-12-04T20:34:03.568Z,11.48
2022-12-04T20:36:35.806Z,11.82
2022-12-04T20:39:04.000Z,11.52
2022-12-04T20:41:32.491Z,8.40
2022-12-04T20:44:02.262Z,11.18
2022-12-04T20:46:32.829Z,11.50
2022-12-04T20:49:01.681Z,10.98
2022-12-04T20:51:35.408Z,10.80
2022-12-04T20:54:03.496Z,10.18
2022-12-04T20:56:33.783Z,12.00
2022-12-04T20:59:04.660Z,8.57
2022-12-04T21:01:33.343Z,12.35
2022-12-04T21:04:01.516Z,10.35
2022-12-04T21:06:38.610Z,9.60
2022-12-04T21:09:10.357Z,9.38
2022-12-04T21:11:40.553Z,9.57
2022-12-04T21:14:31.262Z,10.65
2022-12-04T21:16:59.193Z,9.82
2022-12-04T21:19:27.002Z,9.48
2022-12-04T21:21:54.730Z,11.75
2022-12-04T21:24:24.919Z,10.75
2022-12-04T21:26:53.283Z,9.70
2022-12-04T21:29:21.038Z,12.48
2022-12-04T21:31:48.661Z,9.63
2022-12-04T21:34:17.485Z,9.10
2022-12-04T21:36:46.312Z,6.72
2022-12-04T21:39:15.327Z,12.30
2022-12-04T21:42:01.546Z,12.50
2022-12-04T21:44:29.108Z,8.70
2022-12-04T21:46:56.549Z,10.75
2022-12-04T21:49:24.378Z,11.02
2022-12-04T21:51:58.097Z,11.98
2022-12-04T21:54:29.968Z,12.05
2022-12-04T21:56:57.802Z,9.32
2022-12-04T21:59:25.974Z,11.43
2022-12-04T22:01:53.958Z,8.80
2022-12-04T22:04:21.765Z,11.82
2022-12-04T22:06:49.225Z,10.13
2022-12-04T22:09:17.251Z,11.02
2022-12-04T22:11:45.747Z,9.50
2022-12-04T22:14:14.971Z,10.13
2022-12-04T22:16:43.380Z,6.38
2022-12-04T22:19:12.723Z,13.43
2022-12-04T22:21:41.042Z,9.55
2022-12-04T22:24:10.896Z,13.45
2022-12-04T22:26:38.744Z,8.82
2022-12-04T22:29:27.147Z,11.90
2022-12-04T22:31:53.794Z,8.93
2022-12-04T22:34:21.363Z,11.13
2022-12-04T22:36:49.925Z,11.93
2022-12-04T22:39:17.528Z,12.80
2022-12-04T22:41:44.935Z,10.07
2022-12-04T22:44:12.436Z,9.48
2022-12-04T22:46:39.892Z,12.48
2022-12-04T22:49:07.361Z,6.80
2022-12-04T22:51:34.789Z,11.27
2022-12-04T22:54:03.202Z,11.43
2022-12-04T22:56:32.008Z,10.90
2022-12-04T22:59:00.375Z,12.63
2022-12-04T23:01:30.084Z,10.55
2022-12-04T23:03:58.059Z,8.52
2022-12-04T23:06:28.724Z,11.40
2022-12-04T23:08:59.355Z,11.40
2022-12-04T23:11:28.119Z,10.65
2022-12-04T23:14:01.713Z,10.10
2022-12-04T23:16:31.075Z,10.70
2022-12-04T23:18:59.079Z,9.35
2022-12-04T23:21:27.485Z,8.63
2022-12-04T23:23:55.807Z,10.88
2022-12-04T23:26:30.930Z,7.45
2022-12-04T23:28:58.936Z,10.90
2022-12-04T23:31:26.372Z,11.02
2022-12-04T23:33:54.150Z,10.52
2022-12-04T23:36:21.758Z,12.25
2022-12-04T23:38:49.179Z,10.75
2022-12-04T23:41:18.020Z,9.45
2022-12-04T23:43:45.842Z,10.23
2022-12-04T23:46:18.041Z,8.65
2022-12-04T23:48:45.912Z,11.32
2022-12-04T23:51:15.590Z,9.95
2022-12-04T23:53:43.388Z,6.45
2022-12-04T23:56:17.249Z,9.63
2022-12-04T23:58:46.425Z,7.78
